Terminal Aerodrome Forecast
Issued by NWS Detroit/Pontiac, MI

Home | Current Version | Previous Version | Text Only | Print | Product List | Glossary On
Versions: 1 2 3 4 5 6 7 8 9 10 11 12 13 14 15 16 17 18 19
000
FTUS43 KDTX 230251 AAB
TAFFNT
TAF AMD
KFNT 230251Z 2303/2324 22010KT 5SM -SHRA BKN050 OVC070
      TEMPO 2303/2304 22015G30KT 3SM -TSRA OVC015CB
     FM230400 22012KT P6SM SCT020 SCT040 BKN070
     FM230700 22010KT 5SM -SHRA OVC018
     FM231400 32008KT P6SM BKN025=

USA.gov is the U.S. government's official web portal to all federal, state and local government web resources and services.